Latest Weather Observations for Swan Hill

IDV60801

Issued at 4:05 pm EST Saturday 2 August 2014 (issued every 30 minutes, with the page automatically refreshed every 10 minutes)

About weather observations | Map of weather stations | Latest weather observations for VIC | Other Formats
Station Details ID: 077094 Name: SWAN HILL AERODROME Lat: -35.38 Lon: 143.54 Height: 71.0 m
Data from the previous 72 hours. | See also: Recent months at Swan Hill
Date/Time
EST
Temp
°C
App
Temp
°C
Dew
Point
Rel
Hum
%
Delta-T
°C
Wind Press
QNH
hPa
Press
MSL
hPa
Rain
since 9 am
mm
Dir
 
Spd
km/h
Gust
km/h
Spd
kts
Gust
kts
02/04:00pm 12.1 8.2 -1.6 38 5.4 SSW 9 13 5 7 1030.9 - 0.0
02/03:30pm 12.1 8.2 -1.6 38 5.4 SW 9 15 5 8 1030.7 - 0.0
02/03:00pm 12.2 8.9 -1.1 39 5.3 S 6 9 3 5 1030.6 1030.8 0.0
02/02:30pm 11.1 6.9 -1.1 42 4.8 S 11 20 6 11 1030.7 - 0.0
02/02:00pm 11.4 7.1 -1.3 41 5.0 S 11 15 6 8 1030.9 - 0.0
02/01:30pm 11.7 8.0 -0.1 44 4.8 S 9 17 5 9 1031.1 - 0.0
02/01:00pm 11.9 8.7 0.8 46 4.6 SSW 7 15 4 8 1031.3 - 0.0
02/12:30pm 11.3 7.4 0.9 48 4.3 S 11 19 6 10 1031.6 - 0.0
02/12:00pm 11.2 7.4 2.0 53 3.9 SSE 11 17 6 9 1031.8 1032.0 0.0
02/11:30am 10.2 6.5 2.4 58 3.3 S 11 19 6 10 1031.9 - 0.0
02/11:00am 9.5 6.0 3.5 66 2.6 S 11 17 6 9 1031.9 - 0.0
02/10:30am 8.2 4.6 3.2 71 2.1 S 11 17 6 9 1031.9 - 0.0
02/10:00am 6.6 2.9 2.4 74 1.7 SSW 11 15 6 8 1031.7 - 0.0
02/09:30am 4.8 0.7 2.3 84 1.0 SSW 13 17 7 9 1031.5 - 0.0
02/09:00am 3.1 -0.4 1.3 88 0.7 SSW 9 17 5 9 1031.1 1031.3 0.2
02/08:30am 1.4 -2.6 0.3 92 0.4 SW 11 17 6 9 1030.6 - 0.2
02/08:00am 0.2 - - - - SW 9 13 5 7 1030.2 - 0.0
02/07:30am -0.6 - - - - WSW 9 13 5 7 1029.7 - 0.0
02/07:00am -0.3 - - - - SW 13 15 7 8 1029.3 - 0.0
02/06:30am -0.7 - - - - WSW 11 13 6 7 1028.8 - 0.0
02/06:00am -1.1 - - - - WSW 6 9 3 5 1028.3 1028.5 0.0
02/05:30am -0.6 - - - - WSW 7 11 4 6 1027.8 - 0.0
02/05:00am -0.5 - - - - WSW 2 9 1 5 1027.5 - 0.0
02/04:30am -0.2 - - - - WSW 7 9 4 5 1027.4 - 0.0
02/04:00am -0.2 - - - - WSW 11 13 6 7 1027.1 - 0.0
02/03:30am 0.3 - - - - WSW 13 17 7 9 1026.7 - 0.0
02/03:00am 0.9 -3.2 0.1 94 0.3 SW 11 15 6 8 1026.7 1026.9 0.0
02/02:30am 0.5 - - - - WSW 9 13 5 7 1026.7 - 0.0
02/02:00am 1.2 -3.2 0.1 92 0.4 WSW 13 17 7 9 1026.5 - 0.0
02/01:30am 1.2 -4.0 0.1 92 0.4 W 17 22 9 12 1026.3 - 0.0
02/01:00am 2.9 -2.1 1.1 88 0.7 SW 17 22 9 12 1025.7 - 0.0
02/12:30am 3.0 -3.0 1.2 88 0.7 SW 22 28 12 15 1025.3 - 0.0
02/12:00am 2.6 -2.4 1.3 91 0.5 SW 17 20 9 11 1025.3 1025.4 0.0
 
Date/Time
EST
Temp
°C
App
Temp
°C
Dew
Point
Rel
Hum
%
Delta-T
°C
Wind Press
QNH
hPa
Press
MSL
hPa
Rain
since 9 am
mm
Dir
 
Spd
km/h
Gust
km/h
Spd
kts
Gust
kts
01/11:30pm 2.4 -2.2 1.4 93 0.4 SW 15 20 8 11 1025.3 - 0.0
01/11:00pm 2.5 -2.1 1.5 93 0.4 SW 15 19 8 10 1025.1 - 0.0
01/10:30pm 2.5 -2.1 1.5 93 0.4 WSW 15 19 8 10 1024.8 - 0.0
01/10:00pm 3.1 -1.5 1.5 89 0.6 WSW 15 20 8 11 1024.4 - 0.0
01/09:30pm 3.6 -2.3 1.8 88 0.7 WSW 22 28 12 15 1023.9 - 0.0
01/09:00pm 4.0 -1.9 1.7 85 0.9 WSW 22 30 12 16 1023.4 1023.5 0.0
01/08:30pm 4.5 -1.8 1.7 82 1.1 WSW 24 30 13 16 1022.7 - 0.0
01/08:00pm 4.4 -1.5 1.6 82 1.1 WSW 22 28 12 15 1022.4 - 0.0
01/07:30pm 4.7 -1.6 1.4 79 1.3 WSW 24 30 13 16 1021.7 - 0.0
01/07:00pm 5.1 -0.9 1.0 75 1.6 WSW 22 28 12 15 1021.1 - 0.0
01/06:30pm 6.1 -1.1 0.5 67 2.2 WSW 28 35 15 19 1020.1 - 0.0
01/06:00pm 6.8 0.4 1.0 66 2.3 WSW 24 33 13 18 1019.5 1019.6 0.0
01/05:30pm 8.0 1.2 0.8 60 2.9 WSW 26 35 14 19 1018.6 - 0.0
01/05:00pm 9.0 2.3 1.2 58 3.2 SW 26 37 14 20 1017.8 - 0.0
01/04:30pm 10.0 1.9 1.0 53 3.7 SW 33 46 18 25 1016.9 - 0.0
01/04:17pm 9.7 0.7 0.3 52 3.8 SW 37 56 20 30 1016.6 - 0.0
01/04:00pm 10.1 2.2 0.9 53 3.8 SW 32 46 17 25 1016.1 - 0.0
01/03:46pm 10.6 0.9 0.3 49 4.2 WSW 41 59 22 32 1015.8 - 0.0
01/03:30pm 10.4 1.2 1.3 53 3.8 WSW 39 50 21 27 1015.3 - 0.0
01/03:00pm 9.8 -0.2 1.1 54 3.6 WSW 43 50 23 27 1014.6 1014.8 0.0
01/02:30pm 10.9 0.7 1.1 51 4.1 WSW 44 57 24 31 1013.6 - 0.0
01/02:00pm 11.5 0.5 1.0 48 4.4 WSW 48 63 26 34 1013.2 - 0.0
01/01:30pm 10.2 -0.9 2.2 57 3.4 WSW 50 61 27 33 1012.5 - 0.0
01/01:00pm 10.6 -0.5 2.5 57 3.5 W 50 65 27 35 1012.2 - 0.0
01/12:39pm 9.5 -0.7 3.0 64 2.8 W 46 67 25 36 1011.7 - 0.0
01/12:30pm 9.5 -0.5 2.4 61 3.0 W 44 59 24 32 1011.9 - 0.0
01/12:00pm 9.5 -0.3 2.2 60 3.1 W 43 57 23 31 1011.8 1011.9 0.0
01/11:30am 9.7 0.1 3.3 64 2.8 W 43 59 23 32 1011.8 - 0.0
01/11:00am 8.5 -0.8 3.1 69 2.3 W 41 56 22 30 1011.5 - 0.0
01/10:30am 8.1 -0.6 4.0 75 1.8 W 39 52 21 28 1011.6 - 0.0
01/10:00am 6.9 -1.4 4.1 82 1.2 WNW 37 48 20 26 1011.3 - 0.0
01/09:30am 6.7 -1.3 3.9 82 1.2 WNW 35 44 19 24 1010.8 - 0.0
01/09:00am 6.2 -2.6 3.4 82 1.2 WNW 39 59 21 32 1010.6 1010.7 1.4
01/08:58am 6.3 -2.2 3.2 80 1.3 WNW 37 59 20 32 1010.5 - 1.4
01/08:30am 5.6 -1.9 3.5 86 0.9 WNW 32 43 17 23 1010.3 - 1.4
01/08:00am 5.2 -2.3 3.3 87 0.8 WNW 32 39 17 21 1010.1 - 1.4
01/07:30am 5.0 -2.5 3.3 89 0.7 WNW 32 41 17 22 1009.6 - 1.4
01/07:00am 4.9 -2.7 3.0 87 0.8 WNW 32 44 17 24 1009.5 - 1.4
01/06:30am 4.3 -2.2 2.8 90 0.6 WNW 26 35 14 19 1008.9 - 1.4
01/06:00am 4.4 -2.5 2.7 89 0.7 NW 28 35 15 19 1008.8 1008.9 1.4
01/05:30am 3.9 -1.7 3.2 95 0.3 NW 22 28 12 15 1008.6 - 1.4
01/05:00am 4.2 -1.9 3.0 92 0.5 NW 24 32 13 17 1008.4 - 1.4
01/04:30am 4.3 -1.7 3.1 92 0.5 NW 24 32 13 17 1008.4 - 1.4
01/04:00am 4.4 -1.3 2.9 90 0.6 WNW 22 28 12 15 1008.4 - 1.4
01/03:30am 4.6 -1.1 3.1 90 0.6 WNW 22 26 12 14 1008.3 - 1.4
01/03:00am 5.2 -1.1 3.5 89 0.7 WNW 26 32 14 17 1008.5 1008.6 1.4
01/02:30am 5.5 -1.5 4.1 91 0.6 WNW 30 37 16 20 1008.4 - 1.4
01/02:00am 5.7 -0.8 4.5 92 0.5 WNW 28 35 15 19 1008.3 - 1.4
01/01:30am 5.8 -0.3 4.6 92 0.5 WNW 26 33 14 18 1008.4 - 1.4
01/01:00am 5.6 0.2 4.4 92 0.5 WNW 22 30 12 16 1008.3 - 1.2
01/12:30am 5.6 0.8 4.4 92 0.5 WNW 19 24 10 13 1008.3 - 1.2
01/12:00am 5.7 1.2 4.3 91 0.6 WNW 17 20 9 11 1008.3 1008.4 1.2
 
Date/Time
EST
Temp
°C
App
Temp
°C
Dew
Point
Rel
Hum
%
Delta-T
°C
Wind Press
QNH
hPa
Press
MSL
hPa
Rain
since 9 am
mm
Dir
 
Spd
km/h
Gust
km/h
Spd
kts
Gust
kts
31/11:30pm 6.4 2.0 4.8 89 0.7 WNW 17 20 9 11 1008.1 - 1.2
31/11:00pm 6.8 2.4 4.7 86 0.9 W 17 20 9 11 1008.0 - 1.2
31/10:30pm 6.7 0.9 4.6 86 0.9 WSW 24 32 13 17 1008.2 - 1.2
31/10:00pm 6.8 0.4 5.0 88 0.8 SW 28 35 15 19 1007.4 - 1.2
31/09:30pm 7.0 -0.7 5.2 88 0.8 SW 35 50 19 27 1007.8 - 0.8
31/09:23pm 7.1 -1.0 5.1 87 0.9 SW 37 56 20 30 1007.6 - 0.8
31/09:12pm 7.6 -1.6 5.6 87 0.9 SW 43 78 23 42 1007.3 - 0.8
31/09:09pm 8.6 0.1 7.1 90 0.7 W 41 78 22 42 1007.1 - 0.8
31/09:00pm 9.5 1.4 7.2 85 1.1 W 39 50 21 27 1006.5 1006.6 0.6
31/08:30pm 9.4 3.5 7.7 89 0.8 W 28 33 15 18 1005.9 - 0.6
31/08:00pm 9.5 3.0 8.3 92 0.6 W 32 41 17 22 1005.4 - 0.4
31/07:30pm 9.5 3.0 8.3 92 0.6 W 32 43 17 23 1005.0 - 0.2
31/07:08pm 10.1 1.7 7.2 82 1.4 W 41 59 22 32 1004.7 - 0.0
31/07:00pm 10.8 1.5 6.1 73 2.2 W 44 59 24 32 1004.5 - 0.0
31/06:30pm 10.9 2.5 5.8 71 2.4 WSW 39 50 21 27 1004.2 - 0.0
31/06:06pm 11.0 1.6 5.6 69 2.5 WSW 44 63 24 34 1003.6 - 0.0
31/06:00pm 11.1 1.0 5.5 68 2.6 WSW 48 63 26 34 1003.7 1003.9 0.0
31/05:34pm 11.5 2.3 5.5 66 2.8 SW 43 61 23 33 1003.1 - 0.0
31/05:30pm 11.7 3.0 6.2 69 2.6 SW 41 54 22 29 1003.1 - 0.0
31/05:14pm 12.4 2.1 6.3 66 2.9 SW 50 69 27 37 1002.4 - 0.0
31/05:04pm 14.7 3.0 5.5 54 4.4 WSW 56 69 30 37 1001.8 - 0.0
31/05:00pm 19.4 7.2 -2.3 23 9.1 WNW 52 69 28 37 1000.8 - 0.0
31/04:31pm 19.8 9.0 -0.3 26 8.8 WNW 46 65 25 35 1000.5 - 0.0
31/04:30pm 19.8 8.7 -0.3 26 8.8 WNW 48 65 26 35 1000.5 - 0.0
31/04:00pm 20.4 7.9 -1.9 22 9.5 WNW 54 74 29 40 1000.2 - 0.0
31/03:32pm 21.0 7.3 -3.6 19 10.2 WNW 59 80 32 43 1000.0 - 0.0
31/03:30pm 21.0 7.7 -3.6 19 10.2 WNW 57 74 31 40 1000.2 - 0.0
31/03:10pm 21.0 8.5 -2.2 21 9.9 WNW 54 72 29 39 1000.3 - 0.0
31/03:00pm 21.0 7.8 -3.1 19 10.2 NW 57 74 31 40 1000.3 1000.4 0.0
31/02:30pm 20.9 8.8 -2.0 21 9.8 NW 52 72 28 39 1000.8 - 0.0
31/02:00pm 20.5 7.5 -1.7 22 9.5 WNW 57 78 31 42 1001.5 - 0.0
31/01:30pm 20.5 7.2 -0.9 23 9.4 WNW 59 80 32 43 1002.2 - 0.0
31/01:04pm 20.3 8.3 -0.9 24 9.2 NW 52 70 28 38 1002.5 - 0.0
31/01:00pm 20.6 8.8 0.1 25 9.1 NW 52 69 28 37 1002.9 - 0.0
31/12:36pm 20.3 7.4 -0.5 24 9.1 WNW 57 76 31 41 1003.3 - 0.0
31/12:30pm 20.0 6.2 -1.5 23 9.2 NW 61 76 33 41 1003.6 - 0.0
31/12:00pm 19.6 8.4 -0.4 26 8.8 NW 48 67 26 36 1004.4 1004.5 0.0
31/11:51am 19.4 8.2 -0.8 25 8.8 NW 48 67 26 36 1004.7 - 0.0
31/11:30am 18.9 8.3 0.8 29 8.1 NW 46 61 25 33 1005.3 - 0.0
31/11:00am 18.5 9.0 1.8 32 7.6 NW 41 54 22 29 1006.1 - 0.0
31/10:34am 17.8 7.7 0.6 31 7.6 NW 43 61 23 33 1006.6 - 0.0
31/10:30am 17.7 8.2 1.8 34 7.2 NW 41 52 22 28 1006.6 - 0.0
31/10:07am 16.7 8.8 2.1 37 6.6 NNW 33 52 18 28 1006.5 - 0.0
31/10:00am 15.7 8.3 3.9 45 5.5 N 32 39 17 21 1006.9 - 0.0
31/09:30am 13.8 6.8 4.0 51 4.5 N 30 39 16 21 1007.2 - 0.0
31/09:00am 11.5 6.1 4.5 62 3.2 N 22 30 12 16 1007.7 1007.8 0.0
31/08:30am 9.7 5.3 4.8 71 2.2 N 17 22 9 12 1008.3 - 0.0
31/08:00am 8.4 3.6 4.6 77 1.7 N 19 22 10 12 1008.7 - 0.0
31/07:30am 7.1 3.1 4.8 85 1.0 N 15 17 8 9 1008.9 - 0.0
31/07:00am 7.6 3.7 5.4 86 1.0 N 15 19 8 10 1008.8 - 0.0
31/06:30am 8.6 4.0 5.8 82 1.3 N 19 20 10 11 1008.8 - 0.0
31/06:00am 9.3 4.7 6.5 83 1.3 N 20 26 11 14 1008.9 1009.0 0.0
31/05:30am 9.0 4.5 6.9 87 1.0 N 20 24 11 13 1009.1 - 0.0
31/05:00am 8.7 4.2 6.8 88 0.9 N 20 26 11 14 1009.5 - 0.0
31/04:30am 8.7 4.4 6.8 88 0.9 N 19 22 10 12 1009.9 - 0.0
31/04:00am 8.9 4.6 6.8 87 1.0 N 19 20 10 11 1010.2 - 0.0
31/03:30am 9.2 4.9 7.1 87 1.0 N 19 24 10 13 1010.7 - 0.0
31/03:00am 9.6 5.4 7.3 85 1.1 NNE 19 20 10 11 1011.1 1011.2 0.0
31/02:30am 10.0 5.8 7.3 83 1.3 N 19 22 10 12 1011.5 - 0.0
31/02:00am 10.0 6.5 7.3 83 1.3 N 15 19 8 10 1011.9 - 0.0
31/01:30am 10.1 6.7 7.6 84 1.2 N 15 17 8 9 1012.2 - 0.0
31/01:00am 10.6 7.3 8.1 84 1.2 NNW 15 17 8 9 1012.7 - 0.0
31/12:30am 11.2 8.0 8.4 83 1.4 NNW 15 17 8 9 1013.1 - 0.0
31/12:00am 11.4 8.2 8.6 83 1.4 NNW 15 17 8 9 1013.5 1013.6 0.0
 
Date/Time
EST
Temp
°C
App
Temp
°C
Dew
Point
Rel
Hum
%
Delta-T
°C
Wind Press
QNH
hPa
Press
MSL
hPa
Rain
since 9 am
mm
Dir
 
Spd
km/h
Gust
km/h
Spd
kts
Gust
kts
30/11:30pm 12.2 8.6 8.4 77 1.9 NW 17 20 9 11 1013.8 - 0.0
30/11:00pm 12.4 8.9 8.6 77 1.9 NW 17 20 9 11 1014.2 - 0.0
30/10:30pm 12.3 9.3 9.1 81 1.6 NNW 15 17 8 9 1014.5 - 0.0
30/10:00pm 12.0 8.9 9.0 82 1.5 N 15 17 8 9 1014.6 - 0.0
30/09:30pm 10.5 7.2 8.2 86 1.1 N 15 17 8 9 1014.8 - 0.0
30/09:00pm 11.5 8.0 8.7 83 1.4 N 17 19 9 10 1014.9 1015.1 0.0
30/08:30pm 11.8 8.7 9.0 83 1.4 N 15 19 8 10 1015.0 - 0.0
30/08:00pm 11.1 8.4 8.9 86 1.1 NNW 13 13 7 7 1015.0 - 0.0
30/07:30pm 12.5 9.6 9.6 82 1.5 NNW 15 17 8 9 1015.1 - 0.0
30/07:00pm 12.9 10.4 9.8 81 1.6 NNW 13 17 7 9 1015.3 - 0.0
30/06:30pm 13.3 10.9 10.0 80 1.7 NW 13 15 7 8 1015.0 - 0.0
30/06:00pm 14.3 11.8 9.7 74 2.4 WNW 13 15 7 8 1014.9 1015.1 0.0
30/05:30pm 15.7 11.7 8.9 64 3.5 W 20 26 11 14 1014.9 - 0.0
30/05:00pm 16.5 11.3 8.7 60 4.0 W 26 35 14 19 1014.9 - 0.0
30/04:30pm 17.8 13.8 9.2 57 4.5 WNW 20 26 11 14 1014.6 - 0.0

Other Formats:

Comma delimited format used in spreadsheet applications
http://www.bom.gov.au/fwo/IDV60801/IDV60801.94843.axf

JavaScript Object Notation format (JSON) in row-major order
http://www.bom.gov.au/fwo/IDV60801/IDV60801.94843.json